Briefing drone pour Romorantin-lanthenay (LFYR)

Rechercher une autre localisation

Conditions de vol :


Nous sommes le : Vendredi 02 octobre 2020
Il est 22:26 UTC (00:26 LT)

Lever de soleil : 05:27 UTC (07:27 LT)
Coucher de soleil : 17:56 UTC (19:56 LT)

Météo

L'essentiel des conditions de vol

VIGILANCE MÉTÉO FRANCE - Loir-et-Cher (41)
Vigilance Jaune : Vent violent
CARTE TEMSI
CARTES DES FRONTS
METAR de LFYR
LFYR 012200Z AUTO 14007KT CAVOK 13/09 Q0996

Date d'émission: 01/10/2020
Heure d'émission: 22:00 UTC
Vent: 140° pour 7 KT (13 km/h)
Visibilité horizontale: > 10 km
Plafond : Plafond et visibilité OK (CAVOK)
Température: 13 °C
Point de rosée: 9 °C
Humidité: 77%
Pression (QNH): 996 hPa
TAF de LFYR
AMD LFYR 021630Z 0216/0312 CNL

Conditions prévues :

Heure d'émission : Bulletin éffectué le 02 à 16:00 UTC
Prévision : Valide du 02 a 16:00 UTC au 03 a 12:00 UTC
Nuages : à 0ft (0 m)
WEBCAM POUR ROMORANTIN-LANTHENAY

Réglementation

Voler en sécurité

CARTES AERONAUTIQUE 1/500.000
CARTES VAC (LFYR)
SUP AIP




Chargement des AIP...
NOTAM (ROMORANTIN-LANTHENAY + Terrain à proximité / FIR )




Chargement des NOTAMS...
CONTACT PREFECTURE 41
Loir-et-Cher (41) : pref-bpas@loir-et-cher.gouv.fr


Avertissement : Les données mises à disposition sont indicatives. Oxygène Drone ne pourra être tenu responsable de dégâts causés aux biens et aux personnes.